OVERALL NO EVENT First Name Last Name DIV TIME PACE
1 839 1M9 Teresa Schoger F30-39 8:43 8:43
2 821 1M9 Chloe Lacy F00-10 9:27 9:27
3 813 1M9 Gabe Fogle M00-10 10:21 10:21
4 808 1M9 Mark Campbell M50-59 10:26 10:26
5 826 1M9 Mike McGlade M60-69 10:29 10:29
6 823 1M9 Maebry Lawrence F00-10 10:36 10:36
7 822 1M9 Archie Larimer M00-10 10:37 10:37
8 824 1M9 Parker Lawrence F00-10 10:40 10:40
10 805 1M9 Jill Bosshart F50-59 12:14 12:14
11 830 1M9 Amelie Selby F00-10 12:15 12:15
12 818 1M9 Aspen Galindo F00-10 12:34 12:34
13 820 1M9 Robert Hahn M00-10 12:36 12:36
14 809 1M9 Alexandra Dipaolo F00-10 12:45 12:45
15 837 1M9 Rebecca Petersen F50-59 12:47 12:47
16 831 1M9 Sharon Woolmington F60-69 13:56 13:56
17 814 1M9 Sophie Fogle F11-19 15:34 15:34
18 825 1M9 Mary McGlade F50-59 15:38 15:38
19 838 1M9 Andrew Sjolno Smith M30-39 15:48 15:48
20 827 1M9 Kari Montrose F50-59 16:01 16:01
21 817 1M9 Robert R. Frederickson I M60-69 16:12 16:12
22 815 1M9 Joleen Frederickson F00-10 16:12 16:12
23 816 1M9 Sara Frederickson F30-39 16:32 16:32
24 812 1M9 Mike Dipaolo M30-39 17:52 17:52
25 810 1M9 Augustus Dipaolo M11-19 17:52 17:52
26 836 1M9 Carolyn Hunter F60-69 19:31 19:31
27 828 1M9 Caroline Santistevan F30-39 19:31 19:31
28 803 1M9 Alissa Blechar F30-39 20:05 20:05
29 804 1M9 Cadence Blechar F00-10 20:05 20:05
30 832 1M9 Taryn Wynkoop F20-29 22:51 22:51
31 833 1M9 Tayla Wynkoop F00-10 22:55 22:55
32 835 1M9 Christine Bailey 23:37 23:37
33 801 1M9 Joshua Bailey M00-10 23:38 23:38
34 802 1M9 Micah Bailey M00-10 24:21:00 24:21:00